sensor_id;sensor_type;location;lat;lon;timestamp;P1;durP1;ratioP1;P2;durP2;ratioP2
773;SDS011;370;48.810;9.150;2023-05-20T00:01:56;5.25;;;2.50;;
773;SDS011;370;48.810;9.150;2023-05-20T00:04:23;5.35;;;2.42;;
773;SDS011;370;48.810;9.150;2023-05-20T00:06:50;5.75;;;2.10;;
773;SDS011;370;48.810;9.150;2023-05-20T00:09:17;20.00;;;2.67;;
773;SDS011;370;48.810;9.150;2023-05-20T00:11:44;3.22;;;1.95;;
773;SDS011;370;48.810;9.150;2023-05-20T00:14:11;3.88;;;1.95;;
773;SDS011;370;48.810;9.150;2023-05-20T00:16:40;3.95;;;2.60;;
773;SDS011;370;48.810;9.150;2023-05-20T00:19:07;6.13;;;2.25;;
773;SDS011;370;48.810;9.150;2023-05-20T00:21:34;8.50;;;2.65;;
773;SDS011;370;48.810;9.150;2023-05-20T00:24:01;9.88;;;2.47;;
773;SDS011;370;48.810;9.150;2023-05-20T00:26:28;1.63;;;1.60;;
773;SDS011;370;48.810;9.150;2023-05-20T00:28:55;2.75;;;2.30;;
773;SDS011;370;48.810;9.150;2023-05-20T00:31:22;5.93;;;2.20;;
773;SDS011;370;48.810;9.150;2023-05-20T00:33:50;11.68;;;3.08;;
773;SDS011;370;48.810;9.150;2023-05-20T00:36:17;3.33;;;2.30;;
773;SDS011;370;48.810;9.150;2023-05-20T00:38:44;6.47;;;2.40;;
773;SDS011;370;48.810;9.150;2023-05-20T00:41:11;6.20;;;1.85;;
773;SDS011;370;48.810;9.150;2023-05-20T00:43:38;3.08;;;2.22;;
773;SDS011;370;48.810;9.150;2023-05-20T00:46:05;5.85;;;2.80;;
773;SDS011;370;48.810;9.150;2023-05-20T00:48:35;5.60;;;2.90;;
773;SDS011;370;48.810;9.150;2023-05-20T00:51:06;3.67;;;2.33;;
773;SDS011;370;48.810;9.150;2023-05-20T00:53:33;6.75;;;3.03;;
773;SDS011;370;48.810;9.150;2023-05-20T00:56:01;6.85;;;3.03;;
773;SDS011;370;48.810;9.150;2023-05-20T00:58:29;4.03;;;2.47;;
773;SDS011;370;48.810;9.150;2023-05-20T01:00:56;4.05;;;2.33;;
773;SDS011;370;48.810;9.150;2023-05-20T01:03:23;3.45;;;2.28;;
773;SDS011;370;48.810;9.150;2023-05-20T01:05:51;2.58;;;2.38;;
773;SDS011;370;48.810;9.150;2023-05-20T01:08:19;2.15;;;2.00;;
773;SDS011;370;48.810;9.150;2023-05-20T01:10:46;4.93;;;2.40;;
773;SDS011;370;48.810;9.150;2023-05-20T01:13:19;5.30;;;2.70;;
773;SDS011;370;48.810;9.150;2023-05-20T01:15:49;5.68;;;2.50;;
773;SDS011;370;48.810;9.150;2023-05-20T01:18:19;7.05;;;3.35;;
773;SDS011;370;48.810;9.150;2023-05-20T01:20:50;7.47;;;3.10;;
773;SDS011;370;48.810;9.150;2023-05-20T01:23:30;3.95;;;2.92;;
773;SDS011;370;48.810;9.150;2023-05-20T01:25:58;4.72;;;3.25;;
773;SDS011;370;48.810;9.150;2023-05-20T01:28:25;5.57;;;3.03;;
773;SDS011;370;48.810;9.150;2023-05-20T01:30:54;10.55;;;2.67;;
773;SDS011;370;48.810;9.150;2023-05-20T01:33:23;3.05;;;2.47;;
773;SDS011;370;48.810;9.150;2023-05-20T01:35:52;3.30;;;2.60;;
773;SDS011;370;48.810;9.150;2023-05-20T01:38:18;3.22;;;2.30;;
773;SDS011;370;48.810;9.150;2023-05-20T01:40:48;6.32;;;3.00;;
773;SDS011;370;48.810;9.150;2023-05-20T01:43:16;4.20;;;2.15;;
773;SDS011;370;48.810;9.150;2023-05-20T01:45:43;10.68;;;2.78;;
773;SDS011;370;48.810;9.150;2023-05-20T01:48:10;3.90;;;2.47;;
773;SDS011;370;48.810;9.150;2023-05-20T01:50:38;5.10;;;2.63;;
773;SDS011;370;48.810;9.150;2023-05-20T01:53:05;2.97;;;2.55;;
773;SDS011;370;48.810;9.150;2023-05-20T01:55:33;3.67;;;2.30;;
773;SDS011;370;48.810;9.150;2023-05-20T01:58:02;3.92;;;2.22;;
773;SDS011;370;48.810;9.150;2023-05-20T02:00:29;8.38;;;3.60;;
773;SDS011;370;48.810;9.150;2023-05-20T02:02:56;12.38;;;3.30;;
773;SDS011;370;48.810;9.150;2023-05-20T02:05:23;6.30;;;2.40;;
773;SDS011;370;48.810;9.150;2023-05-20T02:07:50;11.65;;;3.47;;
773;SDS011;370;48.810;9.150;2023-05-20T02:10:17;4.20;;;2.88;;
773;SDS011;370;48.810;9.150;2023-05-20T02:12:44;15.52;;;3.50;;
773;SDS011;370;48.810;9.150;2023-05-20T02:15:13;6.60;;;2.70;;
773;SDS011;370;48.810;9.150;2023-05-20T02:17:40;2.55;;;1.83;;
773;SDS011;370;48.810;9.150;2023-05-20T02:20:08;2.80;;;2.10;;
773;SDS011;370;48.810;9.150;2023-05-20T02:22:36;4.90;;;2.35;;
773;SDS011;370;48.810;9.150;2023-05-20T02:25:03;4.78;;;2.53;;
773;SDS011;370;48.810;9.150;2023-05-20T02:27:30;10.45;;;2.88;;
773;SDS011;370;48.810;9.150;2023-05-20T02:29:57;2.15;;;1.92;;
773;SDS011;370;48.810;9.150;2023-05-20T02:32:25;6.88;;;2.17;;
773;SDS011;370;48.810;9.150;2023-05-20T02:34:52;6.38;;;2.92;;
773;SDS011;370;48.810;9.150;2023-05-20T02:37:19;4.28;;;2.78;;
773;SDS011;370;48.810;9.150;2023-05-20T02:39:46;6.93;;;3.10;;
773;SDS011;370;48.810;9.150;2023-05-20T02:42:13;5.80;;;2.40;;
773;SDS011;370;48.810;9.150;2023-05-20T02:44:40;12.20;;;2.90;;
773;SDS011;370;48.810;9.150;2023-05-20T02:47:06;4.03;;;2.50;;
773;SDS011;370;48.810;9.150;2023-05-20T02:49:34;3.45;;;2.47;;
773;SDS011;370;48.810;9.150;2023-05-20T02:52:01;2.88;;;2.42;;
773;SDS011;370;48.810;9.150;2023-05-20T02:54:28;6.68;;;2.65;;
773;SDS011;370;48.810;9.150;2023-05-20T02:56:55;3.38;;;2.30;;
773;SDS011;370;48.810;9.150;2023-05-20T02:59:22;3.42;;;2.10;;
773;SDS011;370;48.810;9.150;2023-05-20T03:01:48;4.55;;;2.55;;
773;SDS011;370;48.810;9.150;2023-05-20T03:04:15;7.47;;;3.03;;
773;SDS011;370;48.810;9.150;2023-05-20T03:06:47;3.08;;;2.13;;
773;SDS011;370;48.810;9.150;2023-05-20T03:09:16;3.13;;;2.25;;
773;SDS011;370;48.810;9.150;2023-05-20T03:11:43;3.35;;;2.25;;
773;SDS011;370;48.810;9.150;2023-05-20T03:14:11;3.67;;;1.77;;
773;SDS011;370;48.810;9.150;2023-05-20T03:16:38;2.55;;;2.08;;
773;SDS011;370;48.810;9.150;2023-05-20T03:19:05;5.45;;;2.70;;
773;SDS011;370;48.810;9.150;2023-05-20T03:21:32;5.05;;;2.75;;
773;SDS011;370;48.810;9.150;2023-05-20T03:24:00;2.47;;;2.22;;
773;SDS011;370;48.810;9.150;2023-05-20T03:26:27;3.70;;;2.20;;
773;SDS011;370;48.810;9.150;2023-05-20T03:28:54;5.55;;;2.72;;
773;SDS011;370;48.810;9.150;2023-05-20T03:31:21;11.88;;;2.70;;
773;SDS011;370;48.810;9.150;2023-05-20T03:33:48;4.72;;;2.03;;
773;SDS011;370;48.810;9.150;2023-05-20T03:36:14;5.43;;;2.47;;
773;SDS011;370;48.810;9.150;2023-05-20T03:38:42;6.72;;;2.80;;
773;SDS011;370;48.810;9.150;2023-05-20T03:41:10;2.83;;;1.90;;
773;SDS011;370;48.810;9.150;2023-05-20T03:43:37;4.18;;;3.17;;
773;SDS011;370;48.810;9.150;2023-05-20T03:46:04;4.65;;;2.22;;
773;SDS011;370;48.810;9.150;2023-05-20T03:48:31;5.15;;;3.13;;
773;SDS011;370;48.810;9.150;2023-05-20T03:50:57;4.25;;;2.38;;
773;SDS011;370;48.810;9.150;2023-05-20T03:53:25;3.88;;;2.30;;
773;SDS011;370;48.810;9.150;2023-05-20T03:55:52;2.55;;;1.92;;
773;SDS011;370;48.810;9.150;2023-05-20T03:58:20;4.75;;;2.80;;
773;SDS011;370;48.810;9.150;2023-05-20T04:00:47;4.07;;;2.25;;
773;SDS011;370;48.810;9.150;2023-05-20T04:03:14;5.90;;;3.00;;
773;SDS011;370;48.810;9.150;2023-05-20T04:05:41;4.00;;;2.78;;
773;SDS011;370;48.810;9.150;2023-05-20T04:08:08;5.75;;;2.22;;
773;SDS011;370;48.810;9.150;2023-05-20T04:10:39;4.10;;;2.78;;
773;SDS011;370;48.810;9.150;2023-05-20T04:13:06;3.88;;;2.63;;
773;SDS011;370;48.810;9.150;2023-05-20T04:15:35;2.42;;;1.95;;
773;SDS011;370;48.810;9.150;2023-05-20T04:18:02;10.07;;;4.38;;
773;SDS011;370;48.810;9.150;2023-05-20T04:20:30;6.38;;;2.67;;
773;SDS011;370;48.810;9.150;2023-05-20T04:22:57;4.38;;;2.83;;
773;SDS011;370;48.810;9.150;2023-05-20T04:25:24;7.75;;;3.55;;
773;SDS011;370;48.810;9.150;2023-05-20T04:27:51;4.10;;;2.75;;
773;SDS011;370;48.810;9.150;2023-05-20T04:30:19;6.50;;;3.08;;
773;SDS011;370;48.810;9.150;2023-05-20T04:32:48;5.43;;;2.60;;
773;SDS011;370;48.810;9.150;2023-05-20T04:35:15;5.45;;;2.67;;
773;SDS011;370;48.810;9.150;2023-05-20T04:37:42;6.15;;;3.22;;
773;SDS011;370;48.810;9.150;2023-05-20T04:40:12;5.35;;;2.30;;
773;SDS011;370;48.810;9.150;2023-05-20T04:42:39;4.30;;;2.25;;
773;SDS011;370;48.810;9.150;2023-05-20T04:45:07;8.10;;;3.20;;
773;SDS011;370;48.810;9.150;2023-05-20T04:47:35;2.75;;;2.00;;
773;SDS011;370;48.810;9.150;2023-05-20T04:50:06;4.78;;;2.78;;
773;SDS011;370;48.810;9.150;2023-05-20T04:52:34;4.57;;;2.53;;
773;SDS011;370;48.810;9.150;2023-05-20T04:55:01;4.07;;;2.45;;
773;SDS011;370;48.810;9.150;2023-05-20T04:57:28;6.28;;;2.88;;
773;SDS011;370;48.810;9.150;2023-05-20T04:59:58;5.90;;;2.70;;
773;SDS011;370;48.810;9.150;2023-05-20T05:02:26;7.03;;;2.63;;
773;SDS011;370;48.810;9.150;2023-05-20T05:04:52;5.13;;;3.63;;
773;SDS011;370;48.810;9.150;2023-05-20T05:07:20;9.70;;;3.33;;
773;SDS011;370;48.810;9.150;2023-05-20T05:09:47;5.47;;;3.05;;
773;SDS011;370;48.810;9.150;2023-05-20T05:12:14;3.55;;;2.28;;
773;SDS011;370;48.810;9.150;2023-05-20T05:14:41;5.70;;;2.88;;
773;SDS011;370;48.810;9.150;2023-05-20T05:17:08;3.97;;;1.92;;
773;SDS011;370;48.810;9.150;2023-05-20T05:19:34;3.85;;;2.60;;
773;SDS011;370;48.810;9.150;2023-05-20T05:22:01;5.57;;;2.80;;
773;SDS011;370;48.810;9.150;2023-05-20T05:24:30;5.80;;;2.60;;
773;SDS011;370;48.810;9.150;2023-05-20T05:26:57;2.70;;;2.45;;
773;SDS011;370;48.810;9.150;2023-05-20T05:32:45;8.95;;;3.33;;
773;SDS011;370;48.810;9.150;2023-05-20T05:35:12;3.47;;;2.47;;
773;SDS011;370;48.810;9.150;2023-05-20T05:37:39;5.68;;;2.22;;
773;SDS011;370;48.810;9.150;2023-05-20T05:40:08;4.65;;;2.67;;
773;SDS011;370;48.810;9.150;2023-05-20T05:42:35;7.85;;;3.13;;
773;SDS011;370;48.810;9.150;2023-05-20T05:45:02;4.80;;;2.60;;
773;SDS011;370;48.810;9.150;2023-05-20T05:47:30;4.18;;;2.40;;
773;SDS011;370;48.810;9.150;2023-05-20T05:49:56;3.45;;;2.50;;
773;SDS011;370;48.810;9.150;2023-05-20T05:52:23;3.83;;;2.63;;
773;SDS011;370;48.810;9.150;2023-05-20T05:54:51;2.80;;;2.27;;
773;SDS011;370;48.810;9.150;2023-05-20T05:57:20;6.28;;;2.42;;
773;SDS011;370;48.810;9.150;2023-05-20T05:59:48;3.65;;;2.72;;
773;SDS011;370;48.810;9.150;2023-05-20T06:02:14;5.30;;;3.10;;
773;SDS011;370;48.810;9.150;2023-05-20T06:04:41;5.20;;;3.10;;
773;SDS011;370;48.810;9.150;2023-05-20T06:07:08;4.10;;;2.70;;
773;SDS011;370;48.810;9.150;2023-05-20T06:09:37;9.13;;;3.20;;
773;SDS011;370;48.810;9.150;2023-05-20T06:12:04;3.60;;;2.87;;
773;SDS011;370;48.810;9.150;2023-05-20T06:14:33;4.60;;;2.57;;
773;SDS011;370;48.810;9.150;2023-05-20T06:17:00;5.07;;;3.23;;
773;SDS011;370;48.810;9.150;2023-05-20T06:19:27;6.60;;;3.00;;
773;SDS011;370;48.810;9.150;2023-05-20T06:21:54;3.37;;;2.70;;
773;SDS011;370;48.810;9.150;2023-05-20T06:24:21;4.47;;;2.77;;
773;SDS011;370;48.810;9.150;2023-05-20T06:26:48;4.90;;;3.20;;
773;SDS011;370;48.810;9.150;2023-05-20T06:29:16;2.17;;;2.00;;
773;SDS011;370;48.810;9.150;2023-05-20T06:31:44;3.30;;;2.77;;
773;SDS011;370;48.810;9.150;2023-05-20T06:34:11;6.37;;;3.37;;
773;SDS011;370;48.810;9.150;2023-05-20T06:36:38;4.20;;;2.80;;
773;SDS011;370;48.810;9.150;2023-05-20T06:39:05;5.27;;;2.80;;
773;SDS011;370;48.810;9.150;2023-05-20T06:41:36;5.30;;;2.70;;
773;SDS011;370;48.810;9.150;2023-05-20T06:44:03;5.23;;;3.00;;
773;SDS011;370;48.810;9.150;2023-05-20T06:46:31;6.37;;;3.60;;
773;SDS011;370;48.810;9.150;2023-05-20T06:49:00;6.20;;;2.57;;
773;SDS011;370;48.810;9.150;2023-05-20T06:51:27;5.30;;;3.17;;
773;SDS011;370;48.810;9.150;2023-05-20T06:53:54;3.87;;;3.07;;
773;SDS011;370;48.810;9.150;2023-05-20T06:56:21;7.80;;;2.70;;
773;SDS011;370;48.810;9.150;2023-05-20T07:01:30;14.70;;;2.80;;
773;SDS011;370;48.810;9.150;2023-05-20T07:04:01;4.53;;;3.33;;
773;SDS011;370;48.810;9.150;2023-05-20T07:06:28;3.83;;;2.70;;
773;SDS011;370;48.810;9.150;2023-05-20T07:08:55;7.07;;;3.00;;
773;SDS011;370;48.810;9.150;2023-05-20T07:11:22;5.30;;;3.10;;
773;SDS011;370;48.810;9.150;2023-05-20T07:13:49;4.00;;;3.00;;
773;SDS011;370;48.810;9.150;2023-05-20T07:16:17;7.07;;;3.60;;
773;SDS011;370;48.810;9.150;2023-05-20T07:18:44;4.33;;;2.80;;
773;SDS011;370;48.810;9.150;2023-05-20T07:21:12;5.47;;;2.83;;
773;SDS011;370;48.810;9.150;2023-05-20T07:23:39;3.53;;;2.43;;
773;SDS011;370;48.810;9.150;2023-05-20T07:26:05;6.60;;;3.67;;
773;SDS011;370;48.810;9.150;2023-05-20T07:28:32;8.20;;;3.00;;
773;SDS011;370;48.810;9.150;2023-05-20T07:31:00;3.90;;;2.97;;
773;SDS011;370;48.810;9.150;2023-05-20T07:33:27;5.27;;;3.37;;
773;SDS011;370;48.810;9.150;2023-05-20T07:35:54;10.67;;;3.50;;
773;SDS011;370;48.810;9.150;2023-05-20T07:38:22;5.03;;;3.47;;
773;SDS011;370;48.810;9.150;2023-05-20T07:40:49;5.20;;;3.20;;
773;SDS011;370;48.810;9.150;2023-05-20T07:43:16;6.27;;;3.30;;
773;SDS011;370;48.810;9.150;2023-05-20T07:45:43;6.30;;;3.30;;
773;SDS011;370;48.810;9.150;2023-05-20T07:48:09;5.83;;;3.43;;
773;SDS011;370;48.810;9.150;2023-05-20T07:53:35;4.40;;;3.20;;
773;SDS011;370;48.810;9.150;2023-05-20T07:56:02;4.53;;;3.17;;
773;SDS011;370;48.810;9.150;2023-05-20T07:58:30;5.10;;;2.87;;
773;SDS011;370;48.810;9.150;2023-05-20T08:00:56;6.73;;;3.70;;
773;SDS011;370;48.810;9.150;2023-05-20T08:03:23;5.00;;;3.53;;
773;SDS011;370;48.810;9.150;2023-05-20T08:05:50;4.57;;;3.00;;
773;SDS011;370;48.810;9.150;2023-05-20T08:08:17;5.77;;;3.53;;
773;SDS011;370;48.810;9.150;2023-05-20T08:10:45;3.60;;;2.77;;
773;SDS011;370;48.810;9.150;2023-05-20T08:13:12;4.93;;;2.90;;
773;SDS011;370;48.810;9.150;2023-05-20T08:15:39;8.77;;;3.53;;
773;SDS011;370;48.810;9.150;2023-05-20T08:18:05;7.53;;;3.70;;
773;SDS011;370;48.810;9.150;2023-05-20T08:20:32;5.93;;;3.30;;
773;SDS011;370;48.810;9.150;2023-05-20T08:22:59;5.33;;;3.30;;
773;SDS011;370;48.810;9.150;2023-05-20T08:25:26;6.87;;;3.40;;
773;SDS011;370;48.810;9.150;2023-05-20T08:27:55;9.97;;;3.10;;
773;SDS011;370;48.810;9.150;2023-05-20T08:30:22;8.17;;;3.30;;
773;SDS011;370;48.810;9.150;2023-05-20T08:35:56;6.87;;;2.87;;
773;SDS011;370;48.810;9.150;2023-05-20T08:38:23;6.05;;;3.45;;
773;SDS011;370;48.810;9.150;2023-05-20T08:46:21;4.23;;;3.03;;
773;SDS011;370;48.810;9.150;2023-05-20T08:48:48;4.10;;;3.07;;
773;SDS011;370;48.810;9.150;2023-05-20T08:51:17;7.20;;;3.47;;
773;SDS011;370;48.810;9.150;2023-05-20T08:53:47;4.47;;;3.30;;
773;SDS011;370;48.810;9.150;2023-05-20T08:56:14;4.13;;;3.50;;
773;SDS011;370;48.810;9.150;2023-05-20T08:58:42;7.80;;;3.47;;
773;SDS011;370;48.810;9.150;2023-05-20T09:01:10;5.47;;;3.00;;
773;SDS011;370;48.810;9.150;2023-05-20T09:03:39;6.17;;;3.43;;
773;SDS011;370;48.810;9.150;2023-05-20T09:06:06;7.63;;;3.20;;
773;SDS011;370;48.810;9.150;2023-05-20T09:08:34;10.77;;;3.47;;
773;SDS011;370;48.810;9.150;2023-05-20T09:11:01;8.77;;;4.03;;
773;SDS011;370;48.810;9.150;2023-05-20T09:13:29;4.73;;;3.70;;
773;SDS011;370;48.810;9.150;2023-05-20T09:15:58;5.43;;;3.67;;
773;SDS011;370;48.810;9.150;2023-05-20T09:18:26;12.10;;;3.70;;
773;SDS011;370;48.810;9.150;2023-05-20T09:20:54;6.63;;;3.70;;
773;SDS011;370;48.810;9.150;2023-05-20T09:23:21;6.60;;;3.47;;
773;SDS011;370;48.810;9.150;2023-05-20T09:25:49;6.43;;;3.53;;
773;SDS011;370;48.810;9.150;2023-05-20T09:28:18;5.37;;;3.87;;
773;SDS011;370;48.810;9.150;2023-05-20T09:30:48;5.60;;;3.70;;
773;SDS011;370;48.810;9.150;2023-05-20T09:33:15;4.47;;;3.60;;
773;SDS011;370;48.810;9.150;2023-05-20T09:35:43;6.27;;;4.60;;
773;SDS011;370;48.810;9.150;2023-05-20T09:38:11;7.60;;;4.87;;
773;SDS011;370;48.810;9.150;2023-05-20T09:40:39;6.10;;;4.43;;
773;SDS011;370;48.810;9.150;2023-05-20T09:43:09;5.70;;;4.10;;
773;SDS011;370;48.810;9.150;2023-05-20T09:45:37;7.40;;;4.30;;
773;SDS011;370;48.810;9.150;2023-05-20T09:48:04;4.20;;;3.60;;
773;SDS011;370;48.810;9.150;2023-05-20T09:50:33;6.03;;;4.23;;
773;SDS011;370;48.810;9.150;2023-05-20T09:53:01;5.40;;;4.37;;
773;SDS011;370;48.810;9.150;2023-05-20T09:55:30;7.43;;;4.63;;
773;SDS011;370;48.810;9.150;2023-05-20T09:57:58;8.03;;;4.50;;
773;SDS011;370;48.810;9.150;2023-05-20T10:00:28;6.60;;;4.47;;
773;SDS011;370;48.810;9.150;2023-05-20T10:02:55;5.57;;;4.20;;
773;SDS011;370;48.810;9.150;2023-05-20T10:05:23;3.70;;;3.50;;
773;SDS011;370;48.810;9.150;2023-05-20T10:08:16;6.27;;;4.10;;
773;SDS011;370;48.810;9.150;2023-05-20T10:10:53;4.73;;;3.20;;
773;SDS011;370;48.810;9.150;2023-05-20T10:13:33;6.40;;;4.60;;
773;SDS011;370;48.810;9.150;2023-05-20T10:16:12;6.73;;;4.40;;
773;SDS011;370;48.810;9.150;2023-05-20T10:18:49;6.07;;;3.97;;
773;SDS011;370;48.810;9.150;2023-05-20T10:21:22;5.17;;;3.70;;
773;SDS011;370;48.810;9.150;2023-05-20T10:23:50;6.53;;;4.67;;
773;SDS011;370;48.810;9.150;2023-05-20T10:26:18;6.90;;;4.10;;
773;SDS011;370;48.810;9.150;2023-05-20T10:28:45;7.13;;;4.37;;
773;SDS011;370;48.810;9.150;2023-05-20T10:31:16;8.30;;;4.57;;
773;SDS011;370;48.810;9.150;2023-05-20T10:33:44;5.20;;;4.33;;
773;SDS011;370;48.810;9.150;2023-05-20T10:36:21;5.90;;;4.67;;
773;SDS011;370;48.810;9.150;2023-05-20T10:38:51;5.80;;;4.20;;
773;SDS011;370;48.810;9.150;2023-05-20T10:41:20;7.73;;;4.77;;
773;SDS011;370;48.810;9.150;2023-05-20T10:43:58;5.10;;;4.30;;
773;SDS011;370;48.810;9.150;2023-05-20T10:46:27;5.23;;;4.10;;
773;SDS011;370;48.810;9.150;2023-05-20T10:48:54;6.97;;;4.60;;
773;SDS011;370;48.810;9.150;2023-05-20T10:51:20;6.93;;;4.30;;
773;SDS011;370;48.810;9.150;2023-05-20T10:53:50;6.30;;;4.10;;
773;SDS011;370;48.810;9.150;2023-05-20T10:56:21;6.17;;;4.73;;
773;SDS011;370;48.810;9.150;2023-05-20T10:58:49;6.90;;;4.67;;
773;SDS011;370;48.810;9.150;2023-05-20T11:01:17;5.77;;;4.50;;
773;SDS011;370;48.810;9.150;2023-05-20T11:03:44;8.20;;;4.10;;
773;SDS011;370;48.810;9.150;2023-05-20T11:06:12;4.93;;;3.83;;
773;SDS011;370;48.810;9.150;2023-05-20T11:08:39;7.93;;;4.07;;
773;SDS011;370;48.810;9.150;2023-05-20T11:11:06;6.50;;;5.80;;
773;SDS011;370;48.810;9.150;2023-05-20T11:13:34;6.33;;;4.53;;
773;SDS011;370;48.810;9.150;2023-05-20T11:16:01;4.63;;;3.87;;
773;SDS011;370;48.810;9.150;2023-05-20T11:18:29;4.83;;;4.10;;
773;SDS011;370;48.810;9.150;2023-05-20T11:20:56;5.10;;;4.53;;
773;SDS011;370;48.810;9.150;2023-05-20T11:23:24;5.20;;;3.93;;
773;SDS011;370;48.810;9.150;2023-05-20T11:25:52;4.10;;;3.90;;
773;SDS011;370;48.810;9.150;2023-05-20T11:28:20;6.03;;;4.47;;
773;SDS011;370;48.810;9.150;2023-05-20T11:30:49;4.47;;;4.17;;
773;SDS011;370;48.810;9.150;2023-05-20T11:33:17;4.73;;;4.10;;
773;SDS011;370;48.810;9.150;2023-05-20T11:35:44;5.10;;;4.50;;
773;SDS011;370;48.810;9.150;2023-05-20T11:38:12;5.50;;;4.43;;
773;SDS011;370;48.810;9.150;2023-05-20T11:40:42;7.13;;;4.20;;
773;SDS011;370;48.810;9.150;2023-05-20T11:43:10;5.87;;;4.67;;
773;SDS011;370;48.810;9.150;2023-05-20T11:45:39;7.27;;;4.80;;
773;SDS011;370;48.810;9.150;2023-05-20T11:48:08;7.37;;;4.10;;
773;SDS011;370;48.810;9.150;2023-05-20T11:50:35;5.60;;;3.93;;
773;SDS011;370;48.810;9.150;2023-05-20T11:53:05;5.97;;;3.77;;
773;SDS011;370;48.810;9.150;2023-05-20T11:55:32;4.20;;;3.70;;
773;SDS011;370;48.810;9.150;2023-05-20T11:58:00;6.07;;;3.90;;
773;SDS011;370;48.810;9.150;2023-05-20T12:00:28;6.10;;;4.10;;
773;SDS011;370;48.810;9.150;2023-05-20T12:02:55;4.80;;;3.63;;
773;SDS011;370;48.810;9.150;2023-05-20T12:05:23;4.77;;;3.30;;
773;SDS011;370;48.810;9.150;2023-05-20T12:07:50;5.33;;;4.17;;
773;SDS011;370;48.810;9.150;2023-05-20T12:10:16;6.97;;;4.37;;
773;SDS011;370;48.810;9.150;2023-05-20T12:12:43;5.30;;;4.20;;
773;SDS011;370;48.810;9.150;2023-05-20T12:15:10;7.93;;;3.73;;
773;SDS011;370;48.810;9.150;2023-05-20T12:17:44;4.20;;;3.53;;
773;SDS011;370;48.810;9.150;2023-05-20T12:20:13;5.10;;;3.90;;
773;SDS011;370;48.810;9.150;2023-05-20T12:22:42;8.50;;;3.90;;
773;SDS011;370;48.810;9.150;2023-05-20T12:25:10;5.70;;;4.20;;
773;SDS011;370;48.810;9.150;2023-05-20T12:27:38;4.33;;;4.03;;
773;SDS011;370;48.810;9.150;2023-05-20T12:30:06;6.10;;;4.60;;
773;SDS011;370;48.810;9.150;2023-05-20T12:32:34;5.70;;;4.30;;
773;SDS011;370;48.810;9.150;2023-05-20T12:35:01;4.93;;;4.63;;
773;SDS011;370;48.810;9.150;2023-05-20T12:37:28;4.23;;;3.97;;
773;SDS011;370;48.810;9.150;2023-05-20T12:39:57;7.60;;;4.63;;
773;SDS011;370;48.810;9.150;2023-05-20T12:42:24;4.53;;;3.83;;
773;SDS011;370;48.810;9.150;2023-05-20T12:44:50;4.27;;;3.97;;
773;SDS011;370;48.810;9.150;2023-05-20T12:47:17;5.73;;;3.90;;
773;SDS011;370;48.810;9.150;2023-05-20T12:49:45;5.00;;;3.90;;
773;SDS011;370;48.810;9.150;2023-05-20T12:52:12;8.07;;;4.23;;
773;SDS011;370;48.810;9.150;2023-05-20T12:54:38;4.50;;;3.87;;
773;SDS011;370;48.810;9.150;2023-05-20T12:57:06;11.50;;;4.43;;
773;SDS011;370;48.810;9.150;2023-05-20T12:59:33;9.73;;;4.30;;
773;SDS011;370;48.810;9.150;2023-05-20T13:02:01;5.83;;;3.77;;
773;SDS011;370;48.810;9.150;2023-05-20T13:04:28;4.90;;;3.63;;
773;SDS011;370;48.810;9.150;2023-05-20T13:06:56;6.73;;;4.80;;
773;SDS011;370;48.810;9.150;2023-05-20T13:09:23;7.23;;;4.53;;
773;SDS011;370;48.810;9.150;2023-05-20T13:11:50;4.87;;;3.57;;
773;SDS011;370;48.810;9.150;2023-05-20T13:14:18;4.50;;;4.03;;
773;SDS011;370;48.810;9.150;2023-05-20T13:16:45;6.30;;;4.53;;
773;SDS011;370;48.810;9.150;2023-05-20T13:19:12;5.30;;;3.97;;
773;SDS011;370;48.810;9.150;2023-05-20T13:21:39;6.03;;;4.50;;
773;SDS011;370;48.810;9.150;2023-05-20T13:24:05;9.33;;;4.30;;
773;SDS011;370;48.810;9.150;2023-05-20T13:26:33;7.53;;;5.10;;
773;SDS011;370;48.810;9.150;2023-05-20T13:28:59;8.80;;;4.20;;
773;SDS011;370;48.810;9.150;2023-05-20T13:31:27;4.33;;;3.87;;
773;SDS011;370;48.810;9.150;2023-05-20T13:33:54;4.40;;;4.10;;
773;SDS011;370;48.810;9.150;2023-05-20T13:36:23;6.93;;;3.90;;
773;SDS011;370;48.810;9.150;2023-05-20T13:38:50;4.53;;;3.63;;
773;SDS011;370;48.810;9.150;2023-05-20T13:41:16;4.50;;;3.60;;
773;SDS011;370;48.810;9.150;2023-05-20T13:43:43;5.93;;;3.90;;
773;SDS011;370;48.810;9.150;2023-05-20T13:46:10;4.90;;;4.00;;
773;SDS011;370;48.810;9.150;2023-05-20T13:48:38;5.43;;;3.70;;
773;SDS011;370;48.810;9.150;2023-05-20T13:51:05;4.30;;;3.60;;
773;SDS011;370;48.810;9.150;2023-05-20T13:53:32;8.10;;;3.80;;
773;SDS011;370;48.810;9.150;2023-05-20T13:55:59;5.60;;;3.90;;
773;SDS011;370;48.810;9.150;2023-05-20T13:58:26;24.03;;;4.47;;
773;SDS011;370;48.810;9.150;2023-05-20T14:00:52;4.87;;;3.33;;
773;SDS011;370;48.810;9.150;2023-05-20T14:03:19;4.60;;;3.63;;
773;SDS011;370;48.810;9.150;2023-05-20T14:05:47;4.37;;;3.33;;
773;SDS011;370;48.810;9.150;2023-05-20T14:08:14;4.47;;;3.70;;
773;SDS011;370;48.810;9.150;2023-05-20T14:10:41;4.70;;;3.20;;
773;SDS011;370;48.810;9.150;2023-05-20T14:13:07;3.43;;;3.10;;
773;SDS011;370;48.810;9.150;2023-05-20T14:15:34;4.60;;;3.37;;
773;SDS011;370;48.810;9.150;2023-05-20T14:18:01;4.50;;;3.33;;
773;SDS011;370;48.810;9.150;2023-05-20T14:20:28;12.93;;;3.77;;
773;SDS011;370;48.810;9.150;2023-05-20T14:22:56;5.40;;;3.30;;
773;SDS011;370;48.810;9.150;2023-05-20T14:25:24;3.30;;;2.80;;
773;SDS011;370;48.810;9.150;2023-05-20T14:27:51;11.20;;;3.20;;
773;SDS011;370;48.810;9.150;2023-05-20T14:30:18;4.07;;;3.33;;
773;SDS011;370;48.810;9.150;2023-05-20T14:32:45;4.70;;;3.53;;
773;SDS011;370;48.810;9.150;2023-05-20T14:35:12;4.90;;;3.30;;
773;SDS011;370;48.810;9.150;2023-05-20T14:37:38;4.30;;;3.30;;
773;SDS011;370;48.810;9.150;2023-05-20T14:40:07;3.53;;;3.10;;
773;SDS011;370;48.810;9.150;2023-05-20T14:42:34;6.70;;;3.27;;
773;SDS011;370;48.810;9.150;2023-05-20T14:45:01;4.23;;;3.30;;
773;SDS011;370;48.810;9.150;2023-05-20T14:47:28;5.50;;;3.80;;
773;SDS011;370;48.810;9.150;2023-05-20T14:49:55;5.43;;;3.90;;
773;SDS011;370;48.810;9.150;2023-05-20T14:52:22;4.20;;;3.60;;
773;SDS011;370;48.810;9.150;2023-05-20T14:54:49;3.93;;;3.43;;
773;SDS011;370;48.810;9.150;2023-05-20T14:57:17;3.70;;;3.17;;
773;SDS011;370;48.810;9.150;2023-05-20T14:59:44;3.87;;;3.50;;
773;SDS011;370;48.810;9.150;2023-05-20T15:02:11;5.60;;;3.17;;
773;SDS011;370;48.810;9.150;2023-05-20T15:04:38;3.23;;;2.80;;
773;SDS011;370;48.810;9.150;2023-05-20T15:07:06;3.43;;;2.90;;
773;SDS011;370;48.810;9.150;2023-05-20T15:09:33;3.00;;;2.90;;
773;SDS011;370;48.810;9.150;2023-05-20T15:12:00;3.63;;;3.00;;
773;SDS011;370;48.810;9.150;2023-05-20T15:14:28;3.73;;;3.10;;
773;SDS011;370;48.810;9.150;2023-05-20T15:16:55;4.00;;;3.00;;
773;SDS011;370;48.810;9.150;2023-05-20T15:19:21;3.50;;;3.27;;
773;SDS011;370;48.810;9.150;2023-05-20T15:21:48;3.17;;;2.43;;
773;SDS011;370;48.810;9.150;2023-05-20T15:24:15;3.70;;;2.97;;
773;SDS011;370;48.810;9.150;2023-05-20T15:26:42;4.03;;;3.17;;
773;SDS011;370;48.810;9.150;2023-05-20T15:29:09;5.30;;;3.70;;
773;SDS011;370;48.810;9.150;2023-05-20T15:31:37;3.13;;;2.93;;
773;SDS011;370;48.810;9.150;2023-05-20T15:34:04;5.27;;;3.20;;
773;SDS011;370;48.810;9.150;2023-05-20T15:36:31;4.57;;;3.03;;
773;SDS011;370;48.810;9.150;2023-05-20T15:38:58;4.50;;;3.30;;
773;SDS011;370;48.810;9.150;2023-05-20T15:41:24;9.60;;;3.33;;
773;SDS011;370;48.810;9.150;2023-05-20T15:43:51;4.50;;;3.03;;
773;SDS011;370;48.810;9.150;2023-05-20T15:46:18;4.00;;;3.00;;
773;SDS011;370;48.810;9.150;2023-05-20T15:48:46;5.67;;;3.83;;
773;SDS011;370;48.810;9.150;2023-05-20T15:51:13;5.00;;;3.10;;
773;SDS011;370;48.810;9.150;2023-05-20T15:53:41;5.67;;;3.10;;
773;SDS011;370;48.810;9.150;2023-05-20T15:56:09;3.70;;;3.20;;
773;SDS011;370;48.810;9.150;2023-05-20T15:58:37;4.17;;;3.13;;
773;SDS011;370;48.810;9.150;2023-05-20T16:01:04;6.50;;;3.07;;
773;SDS011;370;48.810;9.150;2023-05-20T16:03:31;5.63;;;3.17;;
773;SDS011;370;48.810;9.150;2023-05-20T16:05:59;5.47;;;3.30;;